sensor_id;sensor_type;location;lat;lon;timestamp;temperature;humidity
28087;DHT22;15392;48.912;8.380;2022-12-28T00:00:47;8.20;57.60
28087;DHT22;15392;48.912;8.380;2022-12-28T00:03:13;8.20;57.70
28087;DHT22;15392;48.912;8.380;2022-12-28T00:05:39;8.20;57.70
28087;DHT22;15392;48.912;8.380;2022-12-28T00:08:04;8.20;57.80
28087;DHT22;15392;48.912;8.380;2022-12-28T00:10:30;8.20;57.70
28087;DHT22;15392;48.912;8.380;2022-12-28T00:12:56;8.20;57.80
28087;DHT22;15392;48.912;8.380;2022-12-28T00:15:22;8.20;57.90
28087;DHT22;15392;48.912;8.380;2022-12-28T00:17:47;8.30;57.90
28087;DHT22;15392;48.912;8.380;2022-12-28T00:20:13;8.30;57.90
28087;DHT22;15392;48.912;8.380;2022-12-28T00:22:39;8.30;57.90
28087;DHT22;15392;48.912;8.380;2022-12-28T00:25:05;8.30;57.90
28087;DHT22;15392;48.912;8.380;2022-12-28T00:27:35;8.30;57.80
28087;DHT22;15392;48.912;8.380;2022-12-28T00:30:00;8.30;57.80
28087;DHT22;15392;48.912;8.380;2022-12-28T00:32:27;8.30;57.80
28087;DHT22;15392;48.912;8.380;2022-12-28T00:34:54;8.30;57.80
28087;DHT22;15392;48.912;8.380;2022-12-28T00:37:19;8.30;57.90
28087;DHT22;15392;48.912;8.380;2022-12-28T00:39:45;8.30;57.90
28087;DHT22;15392;48.912;8.380;2022-12-28T00:42:11;8.40;58.00
28087;DHT22;15392;48.912;8.380;2022-12-28T00:44:37;8.40;58.00
28087;DHT22;15392;48.912;8.380;2022-12-28T00:47:03;8.40;58.00
28087;DHT22;15392;48.912;8.380;2022-12-28T00:49:29;8.40;58.00
28087;DHT22;15392;48.912;8.380;2022-12-28T00:51:54;8.40;58.00
28087;DHT22;15392;48.912;8.380;2022-12-28T00:54:20;8.40;58.10
28087;DHT22;15392;48.912;8.380;2022-12-28T00:56:45;8.40;58.00
28087;DHT22;15392;48.912;8.380;2022-12-28T00:59:11;8.50;58.00
28087;DHT22;15392;48.912;8.380;2022-12-28T01:01:37;8.50;58.00
28087;DHT22;15392;48.912;8.380;2022-12-28T01:04:03;8.50;58.10
28087;DHT22;15392;48.912;8.380;2022-12-28T01:06:29;8.50;58.10
28087;DHT22;15392;48.912;8.380;2022-12-28T01:08:55;8.50;58.20
28087;DHT22;15392;48.912;8.380;2022-12-28T01:11:26;8.50;58.30
28087;DHT22;15392;48.912;8.380;2022-12-28T01:13:56;8.60;58.50
28087;DHT22;15392;48.912;8.380;2022-12-28T01:16:29;8.60;58.40
28087;DHT22;15392;48.912;8.380;2022-12-28T01:19:01;8.60;58.40
28087;DHT22;15392;48.912;8.380;2022-12-28T01:21:30;8.70;58.40
28087;DHT22;15392;48.912;8.380;2022-12-28T01:23:59;8.70;58.40
28087;DHT22;15392;48.912;8.380;2022-12-28T01:26:28;8.70;58.40
28087;DHT22;15392;48.912;8.380;2022-12-28T01:28:54;8.80;58.40
28087;DHT22;15392;48.912;8.380;2022-12-28T01:31:20;8.80;58.40
28087;DHT22;15392;48.912;8.380;2022-12-28T01:33:46;8.80;58.30
28087;DHT22;15392;48.912;8.380;2022-12-28T01:36:22;8.80;58.30
28087;DHT22;15392;48.912;8.380;2022-12-28T01:38:57;8.90;58.40
28087;DHT22;15392;48.912;8.380;2022-12-28T01:41:26;8.90;58.40
28087;DHT22;15392;48.912;8.380;2022-12-28T01:51:36;9.00;58.50
28087;DHT22;15392;48.912;8.380;2022-12-28T01:54:07;9.00;58.40
28087;DHT22;15392;48.912;8.380;2022-12-28T01:56:33;9.00;58.40
28087;DHT22;15392;48.912;8.380;2022-12-28T01:58:59;9.00;58.40
28087;DHT22;15392;48.912;8.380;2022-12-28T02:01:25;9.10;58.40
28087;DHT22;15392;48.912;8.380;2022-12-28T02:03:51;9.10;58.30
28087;DHT22;15392;48.912;8.380;2022-12-28T02:06:17;9.10;58.10
28087;DHT22;15392;48.912;8.380;2022-12-28T02:08:57;9.10;58.10
28087;DHT22;15392;48.912;8.380;2022-12-28T02:11:26;9.20;58.20
28087;DHT22;15392;48.912;8.380;2022-12-28T02:13:53;9.10;58.00
28087;DHT22;15392;48.912;8.380;2022-12-28T02:16:19;9.10;58.00
28087;DHT22;15392;48.912;8.380;2022-12-28T02:18:46;9.10;57.90
28087;DHT22;15392;48.912;8.380;2022-12-28T02:32:25;9.20;58.30
28087;DHT22;15392;48.912;8.380;2022-12-28T02:37:45;9.20;58.30
28087;DHT22;15392;48.912;8.380;2022-12-28T02:42:44;9.30;58.30
28087;DHT22;15392;48.912;8.380;2022-12-28T02:48:14;9.30;58.30
28087;DHT22;15392;48.912;8.380;2022-12-28T03:06:55;9.30;58.30
28087;DHT22;15392;48.912;8.380;2022-12-28T03:10:06;9.30;58.10
28087;DHT22;15392;48.912;8.380;2022-12-28T03:12:55;9.40;58.30
28087;DHT22;15392;48.912;8.380;2022-12-28T03:15:35;9.30;58.30
28087;DHT22;15392;48.912;8.380;2022-12-28T03:18:15;9.40;58.40
28087;DHT22;15392;48.912;8.380;2022-12-28T03:21:03;9.40;58.40
28087;DHT22;15392;48.912;8.380;2022-12-28T03:23:52;9.40;58.40
28087;DHT22;15392;48.912;8.380;2022-12-28T03:26:42;9.40;58.40
28087;DHT22;15392;48.912;8.380;2022-12-28T03:29:33;9.50;58.40
28087;DHT22;15392;48.912;8.380;2022-12-28T03:32:22;9.50;58.20
28087;DHT22;15392;48.912;8.380;2022-12-28T03:34:48;9.50;58.20
28087;DHT22;15392;48.912;8.380;2022-12-28T03:37:35;9.50;58.20
28087;DHT22;15392;48.912;8.380;2022-12-28T03:40:11;9.60;58.40
28087;DHT22;15392;48.912;8.380;2022-12-28T03:42:48;9.60;58.20
28087;DHT22;15392;48.912;8.380;2022-12-28T03:48:10;9.60;58.10
28087;DHT22;15392;48.912;8.380;2022-12-28T03:50:38;9.70;58.00
28087;DHT22;15392;48.912;8.380;2022-12-28T03:53:07;9.70;58.00
28087;DHT22;15392;48.912;8.380;2022-12-28T03:55:33;9.70;58.00
28087;DHT22;15392;48.912;8.380;2022-12-28T03:58:03;9.80;58.00
28087;DHT22;15392;48.912;8.380;2022-12-28T04:00:29;9.80;58.00
28087;DHT22;15392;48.912;8.380;2022-12-28T04:02:55;9.80;58.00
28087;DHT22;15392;48.912;8.380;2022-12-28T04:05:20;9.90;58.10
28087;DHT22;15392;48.912;8.380;2022-12-28T04:07:46;9.90;58.10
28087;DHT22;15392;48.912;8.380;2022-12-28T04:10:12;9.90;58.00
28087;DHT22;15392;48.912;8.380;2022-12-28T04:12:38;9.90;57.90
28087;DHT22;15392;48.912;8.380;2022-12-28T04:15:05;10.00;58.00
28087;DHT22;15392;48.912;8.380;2022-12-28T04:17:31;10.00;57.90
28087;DHT22;15392;48.912;8.380;2022-12-28T04:19:57;10.00;58.00
28087;DHT22;15392;48.912;8.380;2022-12-28T04:22:22;10.00;57.90
28087;DHT22;15392;48.912;8.380;2022-12-28T04:24:48;10.00;57.90
28087;DHT22;15392;48.912;8.380;2022-12-28T04:27:14;10.10;57.90
28087;DHT22;15392;48.912;8.380;2022-12-28T04:29:39;10.10;57.90
28087;DHT22;15392;48.912;8.380;2022-12-28T04:32:05;10.10;57.90
28087;DHT22;15392;48.912;8.380;2022-12-28T04:34:31;10.10;57.80
28087;DHT22;15392;48.912;8.380;2022-12-28T04:36:56;10.10;57.80
28087;DHT22;15392;48.912;8.380;2022-12-28T04:39:22;10.10;57.70
28087;DHT22;15392;48.912;8.380;2022-12-28T04:41:48;10.20;57.70
28087;DHT22;15392;48.912;8.380;2022-12-28T04:44:14;10.20;57.70
28087;DHT22;15392;48.912;8.380;2022-12-28T04:46:40;10.20;57.60
28087;DHT22;15392;48.912;8.380;2022-12-28T04:49:06;10.20;57.50
28087;DHT22;15392;48.912;8.380;2022-12-28T04:51:31;10.20;57.50
28087;DHT22;15392;48.912;8.380;2022-12-28T04:53:57;10.20;57.50
28087;DHT22;15392;48.912;8.380;2022-12-28T04:56:24;10.20;57.50
28087;DHT22;15392;48.912;8.380;2022-12-28T04:58:55;10.20;57.60
28087;DHT22;15392;48.912;8.380;2022-12-28T05:01:22;10.20;57.60
28087;DHT22;15392;48.912;8.380;2022-12-28T05:03:48;10.30;57.80
28087;DHT22;15392;48.912;8.380;2022-12-28T05:06:17;10.30;57.80
28087;DHT22;15392;48.912;8.380;2022-12-28T05:08:45;10.40;57.90
28087;DHT22;15392;48.912;8.380;2022-12-28T05:11:19;10.40;57.80
28087;DHT22;15392;48.912;8.380;2022-12-28T05:13:46;10.50;57.80
28087;DHT22;15392;48.912;8.380;2022-12-28T05:16:14;10.50;57.80
28087;DHT22;15392;48.912;8.380;2022-12-28T05:18:41;10.50;57.80
28087;DHT22;15392;48.912;8.380;2022-12-28T05:21:11;10.60;57.70
28087;DHT22;15392;48.912;8.380;2022-12-28T05:23:43;10.70;57.70
28087;DHT22;15392;48.912;8.380;2022-12-28T05:26:11;10.70;57.60
28087;DHT22;15392;48.912;8.380;2022-12-28T05:28:39;10.80;57.60
28087;DHT22;15392;48.912;8.380;2022-12-28T05:31:08;10.90;57.60
28087;DHT22;15392;48.912;8.380;2022-12-28T05:33:36;10.90;57.50
28087;DHT22;15392;48.912;8.380;2022-12-28T05:36:14;11.00;57.50
28087;DHT22;15392;48.912;8.380;2022-12-28T05:38:42;11.10;57.40
28087;DHT22;15392;48.912;8.380;2022-12-28T05:41:11;11.10;57.20
28087;DHT22;15392;48.912;8.380;2022-12-28T05:43:41;11.20;57.20
28087;DHT22;15392;48.912;8.380;2022-12-28T05:46:14;11.30;57.10
28087;DHT22;15392;48.912;8.380;2022-12-28T05:48:43;11.30;56.70
28087;DHT22;15392;48.912;8.380;2022-12-28T05:51:12;11.40;57.00
28087;DHT22;15392;48.912;8.380;2022-12-28T05:53:40;11.50;56.70
28087;DHT22;15392;48.912;8.380;2022-12-28T05:56:07;11.60;56.80
28087;DHT22;15392;48.912;8.380;2022-12-28T05:58:38;11.70;56.70
28087;DHT22;15392;48.912;8.380;2022-12-28T06:01:15;11.70;56.30
28087;DHT22;15392;48.912;8.380;2022-12-28T06:03:43;11.80;56.20
28087;DHT22;15392;48.912;8.380;2022-12-28T06:06:12;11.90;56.40
28087;DHT22;15392;48.912;8.380;2022-12-28T06:08:40;12.00;56.10
28087;DHT22;15392;48.912;8.380;2022-12-28T06:11:08;12.00;56.10
28087;DHT22;15392;48.912;8.380;2022-12-28T06:13:36;12.10;56.00
28087;DHT22;15392;48.912;8.380;2022-12-28T06:16:07;12.20;55.90
28087;DHT22;15392;48.912;8.380;2022-12-28T06:18:35;12.20;55.80
28087;DHT22;15392;48.912;8.380;2022-12-28T06:21:07;12.20;55.50
28087;DHT22;15392;48.912;8.380;2022-12-28T06:23:36;12.30;55.50
28087;DHT22;15392;48.912;8.380;2022-12-28T06:26:03;12.30;55.70
28087;DHT22;15392;48.912;8.380;2022-12-28T06:28:31;12.40;55.20
28087;DHT22;15392;48.912;8.380;2022-12-28T06:31:17;12.40;55.20
28087;DHT22;15392;48.912;8.380;2022-12-28T06:33:48;12.50;54.80
28087;DHT22;15392;48.912;8.380;2022-12-28T06:36:41;12.50;55.40
28087;DHT22;15392;48.912;8.380;2022-12-28T06:39:09;12.60;54.60
28087;DHT22;15392;48.912;8.380;2022-12-28T06:41:37;12.60;54.20
28087;DHT22;15392;48.912;8.380;2022-12-28T06:44:08;12.70;55.20
28087;DHT22;15392;48.912;8.380;2022-12-28T06:46:35;12.70;54.80
28087;DHT22;15392;48.912;8.380;2022-12-28T06:49:02;12.70;54.70
28087;DHT22;15392;48.912;8.380;2022-12-28T06:51:33;12.80;55.20
28087;DHT22;15392;48.912;8.380;2022-12-28T06:54:00;12.80;55.20
28087;DHT22;15392;48.912;8.380;2022-12-28T06:56:28;12.90;55.00
28087;DHT22;15392;48.912;8.380;2022-12-28T06:58:56;12.90;55.10
28087;DHT22;15392;48.912;8.380;2022-12-28T07:01:28;12.90;55.20
28087;DHT22;15392;48.912;8.380;2022-12-28T07:04:04;13.00;54.70
28087;DHT22;15392;48.912;8.380;2022-12-28T07:06:40;13.00;54.80
28087;DHT22;15392;48.912;8.380;2022-12-28T07:09:10;13.00;54.50
28087;DHT22;15392;48.912;8.380;2022-12-28T07:11:41;13.10;54.70
28087;DHT22;15392;48.912;8.380;2022-12-28T07:14:07;13.20;55.10
28087;DHT22;15392;48.912;8.380;2022-12-28T07:16:33;13.20;54.40
28087;DHT22;15392;48.912;8.380;2022-12-28T07:18:59;13.30;54.90
28087;DHT22;15392;48.912;8.380;2022-12-28T07:21:28;13.30;54.90
28087;DHT22;15392;48.912;8.380;2022-12-28T07:23:56;13.30;54.30
28087;DHT22;15392;48.912;8.380;2022-12-28T07:26:24;13.40;54.20
28087;DHT22;15392;48.912;8.380;2022-12-28T07:28:53;13.40;54.20
28087;DHT22;15392;48.912;8.380;2022-12-28T07:31:25;13.50;54.20
28087;DHT22;15392;48.912;8.380;2022-12-28T07:33:53;13.50;53.70
28087;DHT22;15392;48.912;8.380;2022-12-28T07:36:20;13.60;54.30
28087;DHT22;15392;48.912;8.380;2022-12-28T07:38:47;13.60;54.50
28087;DHT22;15392;48.912;8.380;2022-12-28T07:41:15;13.60;54.00
28087;DHT22;15392;48.912;8.380;2022-12-28T07:43:45;13.70;54.20
28087;DHT22;15392;48.912;8.380;2022-12-28T07:46:15;13.70;53.90
28087;DHT22;15392;48.912;8.380;2022-12-28T07:48:48;13.70;54.20
28087;DHT22;15392;48.912;8.380;2022-12-28T07:51:26;13.80;54.30
28087;DHT22;15392;48.912;8.380;2022-12-28T07:53:54;13.80;53.90
28087;DHT22;15392;48.912;8.380;2022-12-28T07:56:21;13.80;53.90
28087;DHT22;15392;48.912;8.380;2022-12-28T07:58:56;13.80;53.20
28087;DHT22;15392;48.912;8.380;2022-12-28T08:01:25;13.90;52.90
28087;DHT22;15392;48.912;8.380;2022-12-28T08:03:54;13.90;53.30
28087;DHT22;15392;48.912;8.380;2022-12-28T08:06:21;13.90;52.70
28087;DHT22;15392;48.912;8.380;2022-12-28T08:08:50;13.90;52.80
28087;DHT22;15392;48.912;8.380;2022-12-28T08:11:20;13.90;53.40
28087;DHT22;15392;48.912;8.380;2022-12-28T08:13:50;14.00;53.80
28087;DHT22;15392;48.912;8.380;2022-12-28T08:16:19;14.00;53.70
28087;DHT22;15392;48.912;8.380;2022-12-28T08:18:47;14.00;53.50
28087;DHT22;15392;48.912;8.380;2022-12-28T08:21:28;14.00;53.70
28087;DHT22;15392;48.912;8.380;2022-12-28T08:23:56;14.10;53.90
28087;DHT22;15392;48.912;8.380;2022-12-28T08:26:30;14.10;53.60
28087;DHT22;15392;48.912;8.380;2022-12-28T08:29:10;14.10;53.50
28087;DHT22;15392;48.912;8.380;2022-12-28T08:31:40;14.10;53.60
28087;DHT22;15392;48.912;8.380;2022-12-28T08:34:11;14.10;53.90
28087;DHT22;15392;48.912;8.380;2022-12-28T08:36:38;14.10;53.90
28087;DHT22;15392;48.912;8.380;2022-12-28T08:39:07;14.10;53.90
28087;DHT22;15392;48.912;8.380;2022-12-28T08:41:33;14.10;54.00
28087;DHT22;15392;48.912;8.380;2022-12-28T08:43:59;14.10;54.00
28087;DHT22;15392;48.912;8.380;2022-12-28T08:46:30;14.10;54.00
28087;DHT22;15392;48.912;8.380;2022-12-28T08:48:58;14.10;53.90
28087;DHT22;15392;48.912;8.380;2022-12-28T08:51:36;14.10;54.10
28087;DHT22;15392;48.912;8.380;2022-12-28T08:54:07;14.10;53.90
28087;DHT22;15392;48.912;8.380;2022-12-28T08:56:37;14.10;54.30
28087;DHT22;15392;48.912;8.380;2022-12-28T08:59:04;14.10;54.10
28087;DHT22;15392;48.912;8.380;2022-12-28T09:01:33;14.10;54.20
28087;DHT22;15392;48.912;8.380;2022-12-28T09:04:00;14.10;54.00
28087;DHT22;15392;48.912;8.380;2022-12-28T09:06:31;14.10;54.20
28087;DHT22;15392;48.912;8.380;2022-12-28T09:08:59;14.10;53.70
28087;DHT22;15392;48.912;8.380;2022-12-28T09:11:26;14.10;53.90
28087;DHT22;15392;48.912;8.380;2022-12-28T09:13:52;14.10;53.90
28087;DHT22;15392;48.912;8.380;2022-12-28T09:16:20;14.10;53.40
28087;DHT22;15392;48.912;8.380;2022-12-28T09:18:52;14.10;53.40
28087;DHT22;15392;48.912;8.380;2022-12-28T09:21:20;14.10;53.40
28087;DHT22;15392;48.912;8.380;2022-12-28T09:23:47;14.20;52.80
28087;DHT22;15392;48.912;8.380;2022-12-28T09:26:14;14.20;53.10
28087;DHT22;15392;48.912;8.380;2022-12-28T09:28:51;14.30;53.00
28087;DHT22;15392;48.912;8.380;2022-12-28T09:31:20;14.30;52.90
28087;DHT22;15392;48.912;8.380;2022-12-28T09:33:47;14.30;52.70
28087;DHT22;15392;48.912;8.380;2022-12-28T09:36:37;14.40;53.30
28087;DHT22;15392;48.912;8.380;2022-12-28T09:39:06;14.40;52.30
28087;DHT22;15392;48.912;8.380;2022-12-28T09:41:53;14.50;53.40
28087;DHT22;15392;48.912;8.380;2022-12-28T09:47:50;14.70;53.20
28087;DHT22;15392;48.912;8.380;2022-12-28T09:55:35;14.90;52.40
28087;DHT22;15392;48.912;8.380;2022-12-28T09:58:03;15.00;53.00
28087;DHT22;15392;48.912;8.380;2022-12-28T10:00:49;15.00;52.60
28087;DHT22;15392;48.912;8.380;2022-12-28T10:03:21;15.10;52.40
28087;DHT22;15392;48.912;8.380;2022-12-28T10:05:49;15.20;53.00
28087;DHT22;15392;48.912;8.380;2022-12-28T10:08:20;15.20;52.90
28087;DHT22;15392;48.912;8.380;2022-12-28T10:10:48;15.20;52.50
28087;DHT22;15392;48.912;8.380;2022-12-28T10:13:29;15.30;52.70
28087;DHT22;15392;48.912;8.380;2022-12-28T10:15:59;15.30;51.40
28087;DHT22;15392;48.912;8.380;2022-12-28T10:18:26;15.40;52.70
28087;DHT22;15392;48.912;8.380;2022-12-28T10:20:52;15.40;52.50
28087;DHT22;15392;48.912;8.380;2022-12-28T10:23:24;15.40;52.20
28087;DHT22;15392;48.912;8.380;2022-12-28T10:25:53;15.40;51.60
28087;DHT22;15392;48.912;8.380;2022-12-28T10:28:21;15.40;52.10
28087;DHT22;15392;48.912;8.380;2022-12-28T10:31:10;15.50;52.30
28087;DHT22;15392;48.912;8.380;2022-12-28T10:33:41;15.50;51.50
28087;DHT22;15392;48.912;8.380;2022-12-28T10:36:15;15.50;52.30
28087;DHT22;15392;48.912;8.380;2022-12-28T10:38:46;15.50;52.20
28087;DHT22;15392;48.912;8.380;2022-12-28T10:41:15;15.50;51.70
28087;DHT22;15392;48.912;8.380;2022-12-28T10:43:45;15.50;51.40
28087;DHT22;15392;48.912;8.380;2022-12-28T10:46:19;15.50;51.30
28087;DHT22;15392;48.912;8.380;2022-12-28T10:48:50;15.50;51.50
28087;DHT22;15392;48.912;8.380;2022-12-28T10:51:20;15.50;51.60
28087;DHT22;15392;48.912;8.380;2022-12-28T10:53:49;15.50;52.20
28087;DHT22;15392;48.912;8.380;2022-12-28T10:56:30;15.50;52.30
28087;DHT22;15392;48.912;8.380;2022-12-28T11:01:34;15.50;48.90
28087;DHT22;15392;48.912;8.380;2022-12-28T11:04:07;15.60;52.40
28087;DHT22;15392;48.912;8.380;2022-12-28T11:06:51;15.60;51.90
28087;DHT22;15392;48.912;8.380;2022-12-28T11:09:32;15.60;51.80
28087;DHT22;15392;48.912;8.380;2022-12-28T11:12:22;15.60;52.30
28087;DHT22;15392;48.912;8.380;2022-12-28T11:14:53;15.60;51.50
28087;DHT22;15392;48.912;8.380;2022-12-28T11:17:26;15.60;52.20
28087;DHT22;15392;48.912;8.380;2022-12-28T11:20:03;15.60;51.80
28087;DHT22;15392;48.912;8.380;2022-12-28T11:22:49;15.60;51.80
28087;DHT22;15392;48.912;8.380;2022-12-28T11:25:17;15.60;52.00
28087;DHT22;15392;48.912;8.380;2022-12-28T11:27:45;15.70;52.10
28087;DHT22;15392;48.912;8.380;2022-12-28T11:30:16;15.70;51.70
28087;DHT22;15392;48.912;8.380;2022-12-28T11:32:52;15.70;50.20
28087;DHT22;15392;48.912;8.380;2022-12-28T11:35:29;15.70;50.90
28087;DHT22;15392;48.912;8.380;2022-12-28T11:37:59;15.70;50.90
28087;DHT22;15392;48.912;8.380;2022-12-28T11:43:47;15.80;50.80
28087;DHT22;15392;48.912;8.380;2022-12-28T11:51:26;15.90;51.60
28087;DHT22;15392;48.912;8.380;2022-12-28T11:56:24;16.00;51.40
28087;DHT22;15392;48.912;8.380;2022-12-28T12:11:50;16.20;50.30
28087;DHT22;15392;48.912;8.380;2022-12-28T12:14:30;16.20;51.80
28087;DHT22;15392;48.912;8.380;2022-12-28T12:18:03;16.20;51.00
28087;DHT22;15392;48.912;8.380;2022-12-28T12:20:42;16.30;50.40
28087;DHT22;15392;48.912;8.380;2022-12-28T12:25:57;16.30;51.10
28087;DHT22;15392;48.912;8.380;2022-12-28T12:28:36;16.30;50.90
28087;DHT22;15392;48.912;8.380;2022-12-28T12:31:08;16.30;50.50
28087;DHT22;15392;48.912;8.380;2022-12-28T12:33:41;16.30;50.50
28087;DHT22;15392;48.912;8.380;2022-12-28T12:45:11;16.40;51.10
28087;DHT22;15392;48.912;8.380;2022-12-28T12:51:13;16.50;50.90
28087;DHT22;15392;48.912;8.380;2022-12-28T12:54:02;16.50;51.60
28087;DHT22;15392;48.912;8.380;2022-12-28T12:59:48;16.50;50.40
28087;DHT22;15392;48.912;8.380;2022-12-28T13:05:26;16.50;49.90
28087;DHT22;15392;48.912;8.380;2022-12-28T13:07:54;16.50;50.50
28087;DHT22;15392;48.912;8.380;2022-12-28T13:10:30;16.50;51.10
28087;DHT22;15392;48.912;8.380;2022-12-28T13:13:00;16.50;50.80
28087;DHT22;15392;48.912;8.380;2022-12-28T13:15:27;16.50;51.00
28087;DHT22;15392;48.912;8.380;2022-12-28T13:18:05;16.50;51.50
28087;DHT22;15392;48.912;8.380;2022-12-28T13:20:40;16.50;50.70
28087;DHT22;15392;48.912;8.380;2022-12-28T13:23:14;16.40;51.10
28087;DHT22;15392;48.912;8.380;2022-12-28T13:25:45;16.50;50.90
28087;DHT22;15392;48.912;8.380;2022-12-28T13:28:30;16.40;51.20
28087;DHT22;15392;48.912;8.380;2022-12-28T13:31:16;16.40;50.40
28087;DHT22;15392;48.912;8.380;2022-12-28T13:33:54;16.40;49.80
28087;DHT22;15392;48.912;8.380;2022-12-28T13:36:20;16.40;50.70
28087;DHT22;15392;48.912;8.380;2022-12-28T13:38:57;16.40;51.60
28087;DHT22;15392;48.912;8.380;2022-12-28T13:41:30;16.40;50.70
28087;DHT22;15392;48.912;8.380;2022-12-28T13:44:14;16.40;51.40
28087;DHT22;15392;48.912;8.380;2022-12-28T13:46:57;16.40;50.60
28087;DHT22;15392;48.912;8.380;2022-12-28T13:49:27;16.40;51.50
28087;DHT22;15392;48.912;8.380;2022-12-28T13:51:53;16.40;51.70
28087;DHT22;15392;48.912;8.380;2022-12-28T13:54:21;16.40;51.00
28087;DHT22;15392;48.912;8.380;2022-12-28T13:56:49;16.40;51.50
28087;DHT22;15392;48.912;8.380;2022-12-28T13:59:18;16.40;51.80
28087;DHT22;15392;48.912;8.380;2022-12-28T14:01:47;16.40;51.80
28087;DHT22;15392;48.912;8.380;2022-12-28T14:04:20;16.40;51.90
28087;DHT22;15392;48.912;8.380;2022-12-28T14:06:49;16.50;52.10
28087;DHT22;15392;48.912;8.380;2022-12-28T14:09:16;16.50;51.60
28087;DHT22;15392;48.912;8.380;2022-12-28T14:11:45;16.50;51.10
28087;DHT22;15392;48.912;8.380;2022-12-28T14:14:11;16.50;51.60
28087;DHT22;15392;48.912;8.380;2022-12-28T14:16:38;16.50;51.60
28087;DHT22;15392;48.912;8.380;2022-12-28T14:19:05;16.50;52.20
28087;DHT22;15392;48.912;8.380;2022-12-28T14:21:43;16.50;51.00
28087;DHT22;15392;48.912;8.380;2022-12-28T14:24:14;16.50;51.60
28087;DHT22;15392;48.912;8.380;2022-12-28T14:26:46;16.60;51.40
28087;DHT22;15392;48.912;8.380;2022-12-28T14:29:21;16.60;51.00
28087;DHT22;15392;48.912;8.380;2022-12-28T14:31:55;16.60;50.60
28087;DHT22;15392;48.912;8.380;2022-12-28T14:34:27;16.60;51.20
28087;DHT22;15392;48.912;8.380;2022-12-28T14:36:55;16.60;51.30
28087;DHT22;15392;48.912;8.380;2022-12-28T14:41:49;16.60;51.80
28087;DHT22;15392;48.912;8.380;2022-12-28T14:44:29;16.60;51.60
28087;DHT22;15392;48.912;8.380;2022-12-28T14:46:56;16.60;51.00
28087;DHT22;15392;48.912;8.380;2022-12-28T14:49:30;16.60;51.90
28087;DHT22;15392;48.912;8.380;2022-12-28T14:54:49;16.60;51.10
28087;DHT22;15392;48.912;8.380;2022-12-28T14:57:39;16.60;51.00
28087;DHT22;15392;48.912;8.380;2022-12-28T15:03:15;16.50;48.90
28087;DHT22;15392;48.912;8.380;2022-12-28T15:05:51;16.50;50.30
28087;DHT22;15392;48.912;8.380;2022-12-28T15:08:19;16.50;50.50
28087;DHT22;15392;48.912;8.380;2022-12-28T15:10:55;16.40;51.20
28087;DHT22;15392;48.912;8.380;2022-12-28T15:13:24;16.40;50.90
28087;DHT22;15392;48.912;8.380;2022-12-28T15:15:59;16.40;51.40
28087;DHT22;15392;48.912;8.380;2022-12-28T15:18:27;16.30;50.80
28087;DHT22;15392;48.912;8.380;2022-12-28T15:20:55;16.30;51.40
28087;DHT22;15392;48.912;8.380;2022-12-28T15:23:21;16.30;51.20
28087;DHT22;15392;48.912;8.380;2022-12-28T15:25:47;16.20;51.00
28087;DHT22;15392;48.912;8.380;2022-12-28T15:28:15;16.20;51.00
28087;DHT22;15392;48.912;8.380;2022-12-28T15:30:42;16.20;51.00
28087;DHT22;15392;48.912;8.380;2022-12-28T15:33:08;16.20;51.00
28087;DHT22;15392;48.912;8.380;2022-12-28T15:35:35;16.10;50.00
28087;DHT22;15392;48.912;8.380;2022-12-28T15:38:01;16.10;50.60
28087;DHT22;15392;48.912;8.380;2022-12-28T15:40:27;16.10;50.50
28087;DHT22;15392;48.912;8.380;2022-12-28T15:42:53;16.00;50.40
28087;DHT22;15392;48.912;8.380;2022-12-28T15:45:19;16.00;49.80
28087;DHT22;15392;48.912;8.380;2022-12-28T15:47:44;16.00;50.10
28087;DHT22;15392;48.912;8.380;2022-12-28T15:50:10;16.00;49.80
28087;DHT22;15392;48.912;8.380;2022-12-28T15:52:36;16.00;50.10
28087;DHT22;15392;48.912;8.380;2022-12-28T15:55:02;16.00;50.30
28087;DHT22;15392;48.912;8.380;2022-12-28T15:57:29;15.90;50.60
28087;DHT22;15392;48.912;8.380;2022-12-28T15:59:55;16.00;50.50
28087;DHT22;15392;48.912;8.380;2022-12-28T16:02:21;15.90;50.40
28087;DHT22;15392;48.912;8.380;2022-12-28T16:04:47;15.90;50.60
28087;DHT22;15392;48.912;8.380;2022-12-28T16:07:14;15.90;50.60
28087;DHT22;15392;48.912;8.380;2022-12-28T16:09:40;15.90;50.30
28087;DHT22;15392;48.912;8.380;2022-12-28T16:12:05;15.90;50.60
28087;DHT22;15392;48.912;8.380;2022-12-28T16:14:31;15.90;50.60
28087;DHT22;15392;48.912;8.380;2022-12-28T16:16:57;15.80;50.70
28087;DHT22;15392;48.912;8.380;2022-12-28T16:19:23;15.80;50.70
28087;DHT22;15392;48.912;8.380;2022-12-28T16:21:49;15.80;50.80
28087;DHT22;15392;48.912;8.380;2022-12-28T16:24:16;15.80;50.80
28087;DHT22;15392;48.912;8.380;2022-12-28T16:26:43;15.80;50.80
28087;DHT22;15392;48.912;8.380;2022-12-28T16:29:09;15.80;50.70
28087;DHT22;15392;48.912;8.380;2022-12-28T16:31:36;15.80;50.60
28087;DHT22;15392;48.912;8.380;2022-12-28T16:34:05;15.80;50.60
28087;DHT22;15392;48.912;8.380;2022-12-28T16:36:33;15.70;50.70
28087;DHT22;15392;48.912;8.380;2022-12-28T16:39:02;15.70;50.20
28087;DHT22;15392;48.912;8.380;2022-12-28T16:41:29;15.70;51.00
28087;DHT22;15392;48.912;8.380;2022-12-28T16:44:00;15.70;50.50
28087;DHT22;15392;48.912;8.380;2022-12-28T16:46:27;15.70;50.20
28087;DHT22;15392;48.912;8.380;2022-12-28T16:48:53;15.70;50.20
28087;DHT22;15392;48.912;8.380;2022-12-28T16:51:19;15.70;50.30
28087;DHT22;15392;48.912;8.380;2022-12-28T16:53:45;15.70;50.20
28087;DHT22;15392;48.912;8.380;2022-12-28T16:56:11;15.70;50.10
28087;DHT22;15392;48.912;8.380;2022-12-28T16:58:37;15.70;50.00
28087;DHT22;15392;48.912;8.380;2022-12-28T17:01:07;15.70;50.10
28087;DHT22;15392;48.912;8.380;2022-12-28T17:03:36;15.70;49.90
28087;DHT22;15392;48.912;8.380;2022-12-28T17:06:02;15.70;49.30
28087;DHT22;15392;48.912;8.380;2022-12-28T17:08:29;15.80;50.30
28087;DHT22;15392;48.912;8.380;2022-12-28T17:10:55;15.80;50.10
28087;DHT22;15392;48.912;8.380;2022-12-28T17:13:21;15.80;49.60
28087;DHT22;15392;48.912;8.380;2022-12-28T17:15:46;15.90;49.80
28087;DHT22;15392;48.912;8.380;2022-12-28T17:18:13;15.90;49.90
28087;DHT22;15392;48.912;8.380;2022-12-28T17:20:39;15.90;49.70
28087;DHT22;15392;48.912;8.380;2022-12-28T17:23:06;15.90;50.00
28087;DHT22;15392;48.912;8.380;2022-12-28T17:25:33;15.90;50.20
28087;DHT22;15392;48.912;8.380;2022-12-28T17:27:59;16.00;49.90
28087;DHT22;15392;48.912;8.380;2022-12-28T17:30:26;16.00;50.20
28087;DHT22;15392;48.912;8.380;2022-12-28T17:32:52;16.00;50.20
28087;DHT22;15392;48.912;8.380;2022-12-28T17:35:19;16.00;50.10
28087;DHT22;15392;48.912;8.380;2022-12-28T17:37:45;16.10;50.30
28087;DHT22;15392;48.912;8.380;2022-12-28T17:40:11;16.10;50.00
28087;DHT22;15392;48.912;8.380;2022-12-28T17:42:37;16.10;50.30
28087;DHT22;15392;48.912;8.380;2022-12-28T17:45:03;16.10;50.10